»·PEaware :: QXE2857 KPDX-KSJC

QXE2857 :: KPDX-KSJC

FLIGHT INFORMATION

Flight Status: Arrived
Operator:
Horizon Air
More flights by this operator :: More flights under this callsign
Pilot: Jessica F. (17029)
Aircraft: EMBRAER EMB-170/175
(E170)
More flights by this aircraft type
Origin: KPDX Portland Intl
United States
Destination: KSJC Mineta San Jose Intl
United States
More flights between these airports :: More routes between these airports
Route: MINNE5 HISKU Q5 HUPTU CHBLI BRIXX2
File this flight plan on PilotEdge
Remarks: PBN / B2B3B4B5C1D1S2 DOF / 171230 REG / N175SB EET / KZOA0040 OPR / QXE PER / C RMK / TCAS SIMBRIEF
Altitude:
(Current/Filed)
29,000ft
Speed:
(Current/Filed)
422kts
Departed: 30-Dec-17 08:49 AM
Arrived: 30-Dec-17 10:24 AM
Distance/Time
Traveled:
494nm/1:34
Distance/Time
To Go:
Arrived

Flight Plot

Page will automatically refresh every two minutes.

Flight plan parsing failed; only flown route is shown


Map Options




Map Legend


Flown Route
Filed Route
Departure Airport
Arrival Airport
Navaid (VOR, NDB)
Fix

Horizontal Profiles

Position Reports

Time Latitude Longitude Heading Altitude Ground
Speed
30-Dec-17 08:24 45.585114 -122.590552 28 24ft 0kts
30-Dec-17 08:25 45.585114 -122.590552 28 24ft 0kts
30-Dec-17 08:26 45.585114 -122.590552 28 24ft 0kts
30-Dec-17 08:27 45.585114 -122.590552 28 24ft 0kts
30-Dec-17 08:28 45.585114 -122.590552 28 24ft 0kts
30-Dec-17 08:29 45.585114 -122.590552 28 24ft 0kts
30-Dec-17 08:30 45.585114 -122.590552 28 24ft 0kts
30-Dec-17 08:31 45.585114 -122.590552 28 24ft 0kts
30-Dec-17 08:32 45.585114 -122.590552 28 24ft 0kts
30-Dec-17 08:33 45.585114 -122.590552 28 24ft 0kts
30-Dec-17 08:34 45.585114 -122.590552 28 24ft 0kts
30-Dec-17 08:35 45.585114 -122.590552 28 24ft 0kts
30-Dec-17 08:36 45.585114 -122.590552 28 24ft 0kts
30-Dec-17 08:37 45.585114 -122.590552 28 24ft 0kts
30-Dec-17 08:38 45.585114 -122.590552 28 24ft 0kts
30-Dec-17 08:39 45.585114 -122.590552 28 24ft 0kts
30-Dec-17 08:40 45.585114 -122.590552 28 24ft 0kts
30-Dec-17 08:41 45.585114 -122.590552 28 24ft 0kts
30-Dec-17 08:42 45.585114 -122.590552 28 24ft 0kts
30-Dec-17 08:43 45.585114 -122.590552 28 24ft 0kts
30-Dec-17 08:44 45.585114 -122.590552 28 24ft 0kts
30-Dec-17 08:45 45.585114 -122.590552 28 24ft 0kts
30-Dec-17 08:46 45.585115 -122.590551 28 24ft 0kts
30-Dec-17 08:47 45.584885 -122.590900 72 24ft 2kts
30-Dec-17 08:48 45.584962 -122.591429 128 24ft 0kts
30-Dec-17 08:49 45.584962 -122.591428 128 24ft 0kts
30-Dec-17 08:50 45.584962 -122.591428 128 24ft 0kts
30-Dec-17 08:51 45.584962 -122.591428 128 24ft 0kts
30-Dec-17 08:52 45.584847 -122.591227 128 24ft 5kts
30-Dec-17 08:53 45.582412 -122.585526 118 24ft 27kts
30-Dec-17 08:54 45.581645 -122.583789 148 24ft 0kts
30-Dec-17 08:55 45.585679 -122.597250 299 25ft 160kts
30-Dec-17 08:56 45.587617 -122.671117 208 1815ft 232kts
30-Dec-17 08:57 45.548939 -122.715504 244 2780ft 241kts
30-Dec-17 08:58 45.584278 -122.806126 283 3927ft 257kts
30-Dec-17 08:59 45.577612 -122.887589 215 4546ft 278kts
30-Dec-17 09:00 45.503940 -122.880968 176 5466ft 276kts
30-Dec-17 09:01 45.427342 -122.895589 191 6971ft 284kts
30-Dec-17 09:02 45.337966 -122.926780 193 8713ft 286kts
30-Dec-17 09:03 45.277005 -122.948606 198 9962ft 274kts
30-Dec-17 09:04 45.197636 -122.966624 187 11470ft 303kts
30-Dec-17 09:05 45.098030 -122.964426 186 13218ft 313kts
30-Dec-17 09:06 45.024991 -122.961973 187 14470ft 319kts
30-Dec-17 09:07 44.920597 -122.958408 187 16220ft 328kts
30-Dec-17 09:08 44.845182 -122.955838 188 17458ft 334kts
30-Dec-17 09:09 44.751724 -122.952673 188 18959ft 342kts
30-Dec-17 09:10 44.655078 -122.949400 189 20469ft 352kts
30-Dec-17 09:11 44.556415 -122.946053 189 22566ft 362kts
30-Dec-17 09:12 44.454186 -122.942754 189 23805ft 372kts
30-Dec-17 09:13 44.350541 -122.939545 189 25268ft 378kts
30-Dec-17 09:14 44.244621 -122.936292 189 26778ft 386kts
30-Dec-17 09:15 44.136973 -122.932997 190 28282ft 394kts
30-Dec-17 09:16 44.026553 -122.929635 190 29285ft 400kts
30-Dec-17 09:17 43.915676 -122.926283 190 29291ft 398kts
30-Dec-17 09:18 43.805806 -122.922939 190 29293ft 400kts
30-Dec-17 09:19 43.694719 -122.919587 190 29293ft 400kts
30-Dec-17 09:20 43.584091 -122.916264 190 29293ft 400kts
30-Dec-17 09:21 43.473073 -122.912941 190 29293ft 400kts
30-Dec-17 09:22 43.361637 -122.909622 190 29295ft 404kts
30-Dec-17 09:23 43.244279 -122.906207 190 29299ft 442kts
30-Dec-17 09:24 43.120185 -122.902460 189 29293ft 448kts
30-Dec-17 09:25 42.995735 -122.898786 189 29293ft 448kts
30-Dec-17 09:26 42.874049 -122.895221 189 29293ft 448kts
30-Dec-17 09:27 42.749940 -122.891598 189 29249ft 448kts
30-Dec-17 09:28 42.625763 -122.887976 189 29240ft 448kts
30-Dec-17 09:29 42.501899 -122.884382 189 29239ft 447kts
30-Dec-17 09:30 42.377776 -122.880813 189 29239ft 447kts
30-Dec-17 09:31 42.253901 -122.877262 189 29239ft 446kts
30-Dec-17 09:32 42.130152 -122.873733 189 29239ft 446kts
30-Dec-17 09:33 42.006458 -122.870217 188 29239ft 446kts
30-Dec-17 09:34 41.884201 -122.866752 188 29239ft 445kts
30-Dec-17 09:35 41.760747 -122.863275 188 29240ft 445kts
30-Dec-17 09:36 41.637570 -122.859817 188 29239ft 445kts
30-Dec-17 09:37 41.513723 -122.856348 188 29239ft 444kts
30-Dec-17 09:38 41.390957 -122.852925 188 29239ft 444kts
30-Dec-17 09:39 41.267475 -122.847276 186 29239ft 446kts
30-Dec-17 09:40 41.143853 -122.839902 186 29239ft 445kts
30-Dec-17 09:41 41.020048 -122.832525 186 29239ft 445kts
30-Dec-17 09:42 40.898274 -122.825299 186 29238ft 446kts
30-Dec-17 09:43 40.776150 -122.818077 186 29240ft 444kts
30-Dec-17 09:44 40.652816 -122.810807 186 29240ft 445kts
30-Dec-17 09:45 40.529722 -122.803582 186 29240ft 445kts
30-Dec-17 09:46 40.407053 -122.796429 185 29214ft 444kts
30-Dec-17 09:47 40.284121 -122.789253 185 29212ft 444kts
30-Dec-17 09:48 40.161261 -122.782122 185 29212ft 444kts
30-Dec-17 09:49 40.038205 -122.775000 185 29212ft 443kts
30-Dec-17 09:50 39.915011 -122.767964 184 29211ft 442kts
30-Dec-17 09:51 39.811305 -122.761985 182 29213ft 448kts
30-Dec-17 09:52 39.687270 -122.754838 182 29212ft 448kts
30-Dec-17 09:53 39.563042 -122.747750 182 29212ft 448kts
30-Dec-17 09:54 39.439694 -122.730522 175 28883ft 450kts
30-Dec-17 09:55 39.317168 -122.703600 175 28393ft 446kts
30-Dec-17 09:56 39.195483 -122.676732 175 28212ft 444kts
30-Dec-17 09:57 39.074096 -122.650018 175 28212ft 444kts
30-Dec-17 09:58 38.952632 -122.623379 175 28212ft 444kts
30-Dec-17 09:59 38.839760 -122.598711 175 28214ft 443kts
30-Dec-17 10:00 38.720831 -122.572810 175 28188ft 442kts
30-Dec-17 10:01 38.600931 -122.546771 175 28187ft 442kts
30-Dec-17 10:02 38.480840 -122.536028 183 26287ft 423kts
30-Dec-17 10:03 38.370724 -122.532196 183 24044ft 375kts
30-Dec-17 10:04 38.266389 -122.528734 183 22244ft 363kts
30-Dec-17 10:05 38.164165 -122.525341 182 21326ft 371kts
30-Dec-17 10:06 38.064227 -122.521878 181 19772ft 357kts
30-Dec-17 10:07 37.966493 -122.514801 180 17755ft 347kts
30-Dec-17 10:08 37.873969 -122.507962 179 15802ft 336kts
30-Dec-17 10:09 37.783180 -122.501241 178 14037ft 323kts
30-Dec-17 10:10 37.700676 -122.459862 144 12945ft 333kts
30-Dec-17 10:11 37.632023 -122.389424 142 11982ft 326kts
30-Dec-17 10:12 37.553819 -122.341051 158 10427ft 317kts
30-Dec-17 10:13 37.474937 -122.299123 159 9769ft 287kts
30-Dec-17 10:14 37.403388 -122.261485 159 9345ft 281kts
30-Dec-17 10:15 37.332728 -122.224458 157 8651ft 277kts
30-Dec-17 10:16 37.269087 -122.172368 137 7960ft 277kts
30-Dec-17 10:17 37.229063 -122.091868 115 7270ft 274kts
30-Dec-17 10:18 37.215109 -122.002509 108 6587ft 270kts
30-Dec-17 10:19 37.172899 -121.925276 125 5917ft 268kts
30-Dec-17 10:20 37.129475 -121.849743 125 5216ft 266kts
30-Dec-17 10:21 37.086567 -121.775094 125 5094ft 264kts
30-Dec-17 10:22 37.061405 -121.692224 80 5101ft 265kts
30-Dec-17 10:23 37.106905 -121.625172 20 5070ft 266kts
30-Dec-17 10:24 37.175700 -121.639540 306 4351ft 261kts
30-Dec-17 10:25 37.194450 -121.727117 282 4052ft 263kts
30-Dec-17 10:26 37.212085 -121.814188 297 3131ft 258kts
30-Dec-17 10:27 37.269265 -121.868253 335 1262ft 292kts
30-Dec-17 10:28 37.322673 -121.894689 330 803ft 169kts
30-Dec-17 10:29 37.359518 -121.926475 317 51ft 159kts
30-Dec-17 10:30 37.368818 -121.931980 49 50ft 22kts
30-Dec-17 10:31 37.367881 -121.929727 138 50ft 40kts
30-Dec-17 10:32 37.364722 -121.925028 56 50ft 0kts
30-Dec-17 10:33 37.364745 -121.924987 52 50ft 0kts
30-Dec-17 10:34 37.364745 -121.924987 52 50ft 0kts
30-Dec-17 10:35 37.364745 -121.924987 52 50ft 0kts

Navigation Log

Ident Type
Flight plan parsing failed, navigation log unavailable